createdAt,value
2023-02-06T00:03:17.516Z,100480.78
2023-02-06T00:08:22.176Z,100468.03
2023-02-06T00:13:27.726Z,100470.44
2023-02-06T00:18:32.783Z,100477.19
2023-02-06T00:23:37.354Z,100463.78
2023-02-06T00:28:42.873Z,100456.00
2023-02-06T00:33:47.685Z,100451.81
2023-02-06T00:38:52.247Z,100447.38
2023-02-06T00:43:58.739Z,100436.38
2023-02-06T00:49:03.397Z,100439.91
2023-02-06T00:54:08.456Z,100434.81
2023-02-06T00:59:14.501Z,100437.13
2023-02-06T01:04:18.929Z,100444.81
2023-02-06T01:09:22.913Z,100430.31
2023-02-06T01:14:28.592Z,100440.16
2023-02-06T01:19:33.309Z,100432.53
2023-02-06T01:24:38.082Z,100428.16
2023-02-06T01:29:43.677Z,100417.38
2023-02-06T01:34:48.624Z,100416.81
2023-02-06T01:39:52.910Z,100426.03
2023-02-06T01:45:43.269Z,100407.97
2023-02-06T01:50:52.665Z,100420.66
2023-02-06T01:56:02.111Z,100413.78
2023-02-06T02:01:09.445Z,100408.97
2023-02-06T02:06:17.436Z,100409.84
2023-02-06T02:11:24.845Z,100389.63
2023-02-06T02:16:44.949Z,100374.47
2023-02-06T02:22:32.805Z,100375.44
2023-02-06T02:28:18.931Z,100361.94
2023-02-06T02:33:56.221Z,100369.13
2023-02-06T02:39:10.604Z,100360.38
2023-02-06T02:44:27.436Z,100363.00
2023-02-06T02:49:36.608Z,100362.25
2023-02-06T02:54:42.872Z,100373.13
2023-02-06T02:59:50.428Z,100374.94
2023-02-06T03:04:58.924Z,100371.59
2023-02-06T03:10:19.347Z,100374.88
2023-02-06T03:15:31.199Z,100396.13
2023-02-06T03:20:40.116Z,100405.22
2023-02-06T03:25:48.775Z,100406.28
2023-02-06T03:30:57.340Z,100412.53
2023-02-06T03:36:03.738Z,100410.69
2023-02-06T03:41:10.056Z,100414.81
2023-02-06T03:46:16.858Z,100406.44
2023-02-06T03:51:26.678Z,100399.84
2023-02-06T03:56:38.118Z,100405.38
2023-02-06T04:01:45.570Z,100400.56
2023-02-06T04:06:50.031Z,100388.34
2023-02-06T04:11:55.791Z,100390.22
2023-02-06T04:16:59.925Z,100396.78
2023-02-06T04:22:04.861Z,100389.06
2023-02-06T04:27:12.473Z,100376.22
2023-02-06T04:32:16.782Z,100377.97
2023-02-06T04:37:21.039Z,100383.88
2023-02-06T04:42:27.292Z,100391.03
2023-02-06T04:47:31.435Z,100373.06
2023-02-06T04:52:35.683Z,100366.19
2023-02-06T04:57:41.283Z,100363.72
2023-02-06T05:02:45.406Z,100369.53
2023-02-06T05:07:49.842Z,100362.88
2023-02-06T05:12:56.358Z,100373.00
2023-02-06T05:18:00.691Z,100360.09
2023-02-06T05:23:04.933Z,100355.69
2023-02-06T05:28:11.004Z,100363.31
2023-02-06T05:33:15.547Z,100369.09
2023-02-06T05:38:20.462Z,100383.53
2023-02-06T05:43:26.694Z,100384.44
2023-02-06T05:48:31.168Z,100380.88
2023-02-06T05:53:35.669Z,100391.09
2023-02-06T05:58:41.485Z,100390.19
2023-02-06T06:03:45.685Z,100405.59
2023-02-06T06:08:49.990Z,100397.97
2023-02-06T06:13:55.439Z,100391.13
2023-02-06T06:18:59.945Z,100386.84
2023-02-06T06:24:05.021Z,100390.19
2023-02-06T06:29:10.707Z,100394.31
2023-02-06T06:34:15.085Z,100401.06
2023-02-06T06:39:19.405Z,100405.31
2023-02-06T06:44:25.650Z,100406.81
2023-02-06T06:49:30.126Z,100400.94
2023-02-06T06:54:34.710Z,100407.63
2023-02-06T06:59:40.686Z,100413.50
2023-02-06T07:04:45.242Z,100412.47
2023-02-06T07:09:50.077Z,100407.19
2023-02-06T07:14:55.927Z,100402.88
2023-02-06T07:20:00.527Z,100408.56
2023-02-06T07:25:05.812Z,100399.94
2023-02-06T07:30:13.261Z,100402.22
2023-02-06T07:35:18.002Z,100402.88
2023-02-06T07:40:23.364Z,100393.72
2023-02-06T07:45:29.925Z,100396.47
2023-02-06T07:50:34.233Z,100393.75
2023-02-06T07:55:39.266Z,100396.41
2023-02-06T08:00:46.013Z,100409.00
2023-02-06T08:05:50.530Z,100401.94
2023-02-06T08:10:54.734Z,100417.44
2023-02-06T08:16:03.970Z,100422.16
2023-02-06T08:21:12.481Z,100421.53
2023-02-06T08:26:19.461Z,100410.63
2023-02-06T08:31:28.745Z,100410.03
2023-02-06T08:36:34.378Z,100401.09
2023-02-06T08:41:41.072Z,100407.44
2023-02-06T08:46:52.330Z,100408.66
2023-02-06T08:51:58.684Z,100408.97
2023-02-06T08:57:03.462Z,100423.56
2023-02-06T09:02:11.552Z,100426.88
2023-02-06T09:07:17.310Z,100427.09
2023-02-06T09:12:21.815Z,100428.91
2023-02-06T09:17:31.456Z,100437.69
2023-02-06T09:22:35.904Z,100434.56
2023-02-06T09:27:40.263Z,100440.72
2023-02-06T09:32:45.924Z,100448.81
2023-02-06T09:37:50.200Z,100448.91
2023-02-06T09:42:55.635Z,100445.81
2023-02-06T09:48:15.534Z,100451.44
2023-02-06T09:53:31.301Z,100451.34
2023-02-06T09:58:43.477Z,100444.16
2023-02-06T10:04:32.238Z,100442.53
2023-02-06T10:09:45.866Z,100448.50
2023-02-06T10:14:55.279Z,100442.59
2023-02-06T10:20:05.294Z,100440.72
2023-02-06T10:25:22.316Z,100444.34
2023-02-06T10:30:42.364Z,100447.19
2023-02-06T10:36:00.984Z,100436.22
2023-02-06T10:41:14.652Z,100433.41
2023-02-06T10:46:44.032Z,100438.47
2023-02-06T10:51:56.237Z,100436.22
2023-02-06T10:57:03.200Z,100429.19
2023-02-06T11:02:22.637Z,100423.25
2023-02-06T11:07:35.866Z,100423.38
2023-02-06T11:12:44.446Z,100413.84
2023-02-06T11:17:49.300Z,100405.81
2023-02-06T11:22:55.616Z,100394.78
2023-02-06T11:28:01.649Z,100401.09
2023-02-06T11:33:08.900Z,100404.06
2023-02-06T11:38:20.884Z,100410.19
2023-02-06T11:43:28.276Z,100410.75
2023-02-06T11:48:37.721Z,100400.00
2023-02-06T11:53:59.977Z,100394.00
2023-02-06T11:59:08.002Z,100397.09
2023-02-06T12:04:24.645Z,100407.47
2023-02-06T12:09:30.581Z,100409.66
2023-02-06T12:14:42.834Z,100396.16
2023-02-06T12:19:52.984Z,100393.25
2023-02-06T12:25:00.164Z,100396.63
2023-02-06T12:30:23.192Z,100388.53
2023-02-06T12:35:41.206Z,100385.78
2023-02-06T12:40:56.792Z,100394.38
2023-02-06T12:46:09.016Z,100396.59
2023-02-06T12:51:21.455Z,100403.50
2023-02-06T12:56:36.682Z,100405.06
2023-02-06T13:01:50.334Z,100412.00
2023-02-06T13:06:58.869Z,100402.91
2023-02-06T13:12:15.647Z,100401.81
2023-02-06T13:17:23.749Z,100408.34
2023-02-06T13:22:51.046Z,100408.03
2023-02-06T13:27:58.236Z,100398.66
2023-02-06T13:33:15.206Z,100391.59
2023-02-06T13:38:42.513Z,100392.72
2023-02-06T13:43:55.240Z,100395.63
2023-02-06T13:49:48.972Z,100399.03
2023-02-06T13:55:13.595Z,100406.28
2023-02-06T14:00:25.930Z,100406.22
2023-02-06T14:05:42.444Z,100415.19
2023-02-06T14:11:14.640Z,100426.47
2023-02-06T14:16:38.067Z,100418.59
2023-02-06T14:21:51.790Z,100426.66
2023-02-06T14:27:16.353Z,100423.25
2023-02-06T14:32:44.290Z,100419.78
2023-02-06T14:38:22.569Z,100434.59
2023-02-06T14:43:31.529Z,100429.94
2023-02-06T14:48:41.391Z,100434.97
2023-02-06T14:53:54.491Z,100431.03
2023-02-06T14:59:15.237Z,100436.34
2023-02-06T15:04:24.422Z,100434.06
2023-02-06T15:09:32.954Z,100421.59
2023-02-06T15:14:50.797Z,100422.47
2023-02-06T15:19:56.411Z,100432.34
2023-02-06T15:25:24.698Z,100424.78
2023-02-06T15:30:29.929Z,100430.66
2023-02-06T15:35:40.396Z,100434.47
2023-02-06T15:40:48.043Z,100431.53
2023-02-06T15:45:55.849Z,100435.88
2023-02-06T15:51:21.377Z,100442.59
2023-02-06T15:56:30.077Z,100446.13
2023-02-06T16:01:40.048Z,100446.41
2023-02-06T16:06:47.808Z,100446.66
2023-02-06T16:11:56.213Z,100442.72
2023-02-06T16:17:05.665Z,100445.59
2023-02-06T16:22:27.413Z,100458.69
2023-02-06T16:27:35.003Z,100471.97
2023-02-06T16:32:39.429Z,100467.47
2023-02-06T16:37:45.549Z,100472.97
2023-02-06T16:42:50.119Z,100478.69
2023-02-06T16:47:55.831Z,100484.19
2023-02-06T16:53:02.905Z,100497.31
2023-02-06T16:58:07.940Z,100493.28
2023-02-06T17:03:16.160Z,100493.09
2023-02-06T17:08:25.369Z,100498.53
2023-02-06T17:13:29.953Z,100498.69
2023-02-06T17:18:34.338Z,100501.38
2023-02-06T17:23:40.162Z,100500.56
2023-02-06T17:28:45.557Z,100498.03
2023-02-06T17:33:50.221Z,100509.25
2023-02-06T17:38:56.021Z,100515.16
2023-02-06T17:44:00.724Z,100509.22
2023-02-06T17:49:05.679Z,100502.69
2023-02-06T17:54:12.396Z,100512.00
2023-02-06T17:59:17.035Z,100511.25
2023-02-06T18:04:21.440Z,100525.66
2023-02-06T18:09:27.665Z,100532.53
2023-02-06T18:14:32.310Z,100522.47
2023-02-06T18:19:42.355Z,100528.34
2023-02-06T18:24:50.068Z,100525.81
2023-02-06T18:29:55.320Z,100523.50
2023-02-06T18:35:00.128Z,100528.63
2023-02-06T18:40:06.911Z,100512.53
2023-02-06T18:45:11.640Z,100510.78
2023-02-06T18:50:16.955Z,100506.53
2023-02-06T18:55:22.936Z,100516.78
2023-02-06T19:00:27.465Z,100500.69
2023-02-06T19:05:35.953Z,100511.75
2023-02-06T19:10:42.518Z,100509.19
2023-02-06T19:15:46.928Z,100513.47
2023-02-06T19:20:51.336Z,100521.19
2023-02-06T19:25:57.285Z,100517.81
2023-02-06T19:31:02.083Z,100520.34
2023-02-06T19:36:13.301Z,100533.03
2023-02-06T19:41:23.810Z,100529.59
2023-02-06T19:46:28.833Z,100527.09
2023-02-06T19:51:36.227Z,100543.84
2023-02-06T19:56:45.211Z,100540.63
2023-02-06T20:01:53.636Z,100541.44
2023-02-06T20:06:58.463Z,100549.94
2023-02-06T20:12:04.832Z,100557.53
2023-02-06T20:17:09.093Z,100565.16
2023-02-06T20:22:13.620Z,100575.28
2023-02-06T20:27:19.138Z,100574.50
2023-02-06T20:32:24.515Z,100580.41
2023-02-06T20:37:28.961Z,100581.25
2023-02-06T20:42:36.778Z,100592.25
2023-02-06T20:47:41.159Z,100595.59
2023-02-06T20:52:45.539Z,100601.50
2023-02-06T20:57:51.116Z,100597.31
2023-02-06T21:02:55.481Z,100610.81
2023-02-06T21:07:59.972Z,100608.31
2023-02-06T21:13:07.471Z,100627.72
2023-02-06T21:18:11.703Z,100631.09
2023-02-06T21:23:15.903Z,100617.56
2023-02-06T21:28:21.809Z,100637.00
2023-02-06T21:33:26.209Z,100628.53
2023-02-06T21:38:31.016Z,100652.16
2023-02-06T21:43:36.636Z,100649.66
2023-02-06T21:48:41.906Z,100664.03
2023-02-06T21:53:46.743Z,100666.53
2023-02-06T21:58:52.752Z,100660.63
2023-02-06T22:03:58.193Z,100662.28
2023-02-06T22:09:08.588Z,100652.19
2023-02-06T22:14:17.094Z,100658.03
2023-02-06T22:19:21.261Z,100639.44
2023-02-06T22:24:25.762Z,100644.53
2023-02-06T22:29:31.365Z,100624.19
2023-02-06T22:34:35.977Z,100609.84
2023-02-06T22:39:40.390Z,100617.56
2023-02-06T22:44:46.284Z,100610.78
2023-02-06T22:49:53.019Z,100615.78
2023-02-06T22:54:57.403Z,100617.56
2023-02-06T23:00:03.141Z,100614.97
2023-02-06T23:05:09.449Z,100620.88
2023-02-06T23:10:13.792Z,100616.69
2023-02-06T23:15:19.853Z,100615.03
2023-02-06T23:20:24.482Z,100613.31
2023-02-06T23:25:29.152Z,100615.88
2023-02-06T23:30:35.556Z,100611.69
2023-02-06T23:35:41.236Z,100609.97
2023-02-06T23:40:46.646Z,100603.25
2023-02-06T23:45:52.145Z,100599.00
2023-02-06T23:50:56.425Z,100600.72
2023-02-06T23:56:01.110Z,100607.50
